Terminal Aerodrome Forecast
Issued by NWS

Home | Current Version | Previous Version | Text Only | Print | Product List | Glossary On
Versions: 1 2 3 4 5 6 7 8 9 10 11 12 13 14 15 16 17 18 19 20
000
FTPA31 PHFO 211857 AAA
TAFHLI
TAF AMD
PHLI 211857Z 2119/2218 06011KT P6SM VCSH SCT025 SCT035
     FM212200 06011KT P6SM VCTS SCT015CB BKN035
     FM220400 06011KT P6SM VCSH SCT015 BKN035=

USA.gov is the U.S. government's official web portal to all federal, state and local government web resources and services.